sensor_id;sensor_type;location;lat;lon;timestamp;P1;durP1;ratioP1;P2;durP2;ratioP2
57225;SDS011;43082;43.568;22.256;2023-03-31T00:00:08;40.75;;;28.17;;
57225;SDS011;43082;43.568;22.256;2023-03-31T00:02:36;47.00;;;30.88;;
57225;SDS011;43082;43.568;22.256;2023-03-31T00:05:07;30.58;;;18.95;;
57225;SDS011;43082;43.568;22.256;2023-03-31T00:07:33;17.70;;;10.32;;
57225;SDS011;43082;43.568;22.256;2023-03-31T00:10:02;19.65;;;10.43;;
57225;SDS011;43082;43.568;22.256;2023-03-31T00:12:28;19.20;;;10.20;;
57225;SDS011;43082;43.568;22.256;2023-03-31T00:14:54;19.23;;;11.10;;
57225;SDS011;43082;43.568;22.256;2023-03-31T00:17:19;16.83;;;10.50;;
57225;SDS011;43082;43.568;22.256;2023-03-31T00:19:45;16.90;;;10.27;;
57225;SDS011;43082;43.568;22.256;2023-03-31T00:22:13;18.00;;;10.43;;
57225;SDS011;43082;43.568;22.256;2023-03-31T00:24:51;15.65;;;10.13;;
57225;SDS011;43082;43.568;22.256;2023-03-31T00:27:17;15.80;;;10.27;;
57225;SDS011;43082;43.568;22.256;2023-03-31T00:29:42;26.85;;;14.98;;
57225;SDS011;43082;43.568;22.256;2023-03-31T00:32:09;23.55;;;14.77;;
57225;SDS011;43082;43.568;22.256;2023-03-31T00:34:35;23.77;;;14.82;;
57225;SDS011;43082;43.568;22.256;2023-03-31T00:37:01;27.63;;;16.10;;
57225;SDS011;43082;43.568;22.256;2023-03-31T00:39:28;28.00;;;18.17;;
57225;SDS011;43082;43.568;22.256;2023-03-31T00:41:57;52.30;;;32.70;;
57225;SDS011;43082;43.568;22.256;2023-03-31T00:44:23;70.93;;;43.38;;
57225;SDS011;43082;43.568;22.256;2023-03-31T00:47:04;48.70;;;31.23;;
57225;SDS011;43082;43.568;22.256;2023-03-31T00:49:34;17.40;;;9.38;;
57225;SDS011;43082;43.568;22.256;2023-03-31T00:54:44;13.35;;;7.25;;
57225;SDS011;43082;43.568;22.256;2023-03-31T00:57:11;9.40;;;4.43;;
57225;SDS011;43082;43.568;22.256;2023-03-31T00:59:39;8.35;;;3.70;;
57225;SDS011;43082;43.568;22.256;2023-03-31T01:02:07;8.65;;;3.30;;
57225;SDS011;43082;43.568;22.256;2023-03-31T01:04:35;8.98;;;3.42;;
57225;SDS011;43082;43.568;22.256;2023-03-31T01:07:13;8.80;;;4.13;;
57225;SDS011;43082;43.568;22.256;2023-03-31T01:09:47;8.73;;;2.13;;
57225;SDS011;43082;43.568;22.256;2023-03-31T01:12:12;7.50;;;2.80;;
57225;SDS011;43082;43.568;22.256;2023-03-31T01:14:40;9.35;;;3.72;;
57225;SDS011;43082;43.568;22.256;2023-03-31T01:17:06;10.13;;;3.58;;
57225;SDS011;43082;43.568;22.256;2023-03-31T01:36:30;8.45;;;3.53;;
57225;SDS011;43082;43.568;22.256;2023-03-31T01:39:05;10.77;;;4.60;;
57225;SDS011;43082;43.568;22.256;2023-03-31T01:44:32;11.75;;;4.10;;
57225;SDS011;43082;43.568;22.256;2023-03-31T01:47:09;10.63;;;3.72;;
57225;SDS011;43082;43.568;22.256;2023-03-31T01:55:36;9.02;;;3.33;;
57225;SDS011;43082;43.568;22.256;2023-03-31T01:58:17;9.18;;;3.65;;
57225;SDS011;43082;43.568;22.256;2023-03-31T02:00:49;8.90;;;3.03;;
57225;SDS011;43082;43.568;22.256;2023-03-31T02:03:22;10.63;;;2.97;;
57225;SDS011;43082;43.568;22.256;2023-03-31T02:05:51;11.80;;;3.42;;
57225;SDS011;43082;43.568;22.256;2023-03-31T02:08:24;9.60;;;3.95;;
57225;SDS011;43082;43.568;22.256;2023-03-31T02:10:53;13.10;;;5.22;;
57225;SDS011;43082;43.568;22.256;2023-03-31T02:13:21;12.45;;;5.57;;
57225;SDS011;43082;43.568;22.256;2023-03-31T02:15:49;13.23;;;6.05;;
57225;SDS011;43082;43.568;22.256;2023-03-31T02:18:17;10.30;;;4.63;;
57225;SDS011;43082;43.568;22.256;2023-03-31T02:20:45;10.80;;;4.20;;
57225;SDS011;43082;43.568;22.256;2023-03-31T02:23:13;11.05;;;5.00;;
57225;SDS011;43082;43.568;22.256;2023-03-31T02:25:46;13.32;;;4.97;;
57225;SDS011;43082;43.568;22.256;2023-03-31T02:28:20;11.95;;;5.03;;
57225;SDS011;43082;43.568;22.256;2023-03-31T02:31:12;11.13;;;5.40;;
57225;SDS011;43082;43.568;22.256;2023-03-31T02:33:52;11.18;;;5.25;;
57225;SDS011;43082;43.568;22.256;2023-03-31T02:36:17;13.07;;;6.57;;
57225;SDS011;43082;43.568;22.256;2023-03-31T02:38:51;12.73;;;6.00;;
57225;SDS011;43082;43.568;22.256;2023-03-31T02:41:19;9.68;;;5.18;;
57225;SDS011;43082;43.568;22.256;2023-03-31T02:43:44;8.63;;;4.15;;
57225;SDS011;43082;43.568;22.256;2023-03-31T02:46:10;10.05;;;3.60;;
57225;SDS011;43082;43.568;22.256;2023-03-31T02:48:40;9.35;;;3.20;;
57225;SDS011;43082;43.568;22.256;2023-03-31T02:59:38;7.53;;;3.05;;
57225;SDS011;43082;43.568;22.256;2023-03-31T03:12:54;8.32;;;4.22;;
57225;SDS011;43082;43.568;22.256;2023-03-31T03:15:33;10.60;;;5.25;;
57225;SDS011;43082;43.568;22.256;2023-03-31T03:18:00;14.05;;;7.43;;
57225;SDS011;43082;43.568;22.256;2023-03-31T03:20:26;15.25;;;8.43;;
57225;SDS011;43082;43.568;22.256;2023-03-31T03:22:51;16.45;;;10.18;;
57225;SDS011;43082;43.568;22.256;2023-03-31T03:25:17;21.98;;;11.85;;
57225;SDS011;43082;43.568;22.256;2023-03-31T03:27:44;32.10;;;19.45;;
57225;SDS011;43082;43.568;22.256;2023-03-31T03:30:11;16.75;;;10.00;;
57225;SDS011;43082;43.568;22.256;2023-03-31T03:32:37;17.83;;;8.88;;
57225;SDS011;43082;43.568;22.256;2023-03-31T03:35:03;17.13;;;8.80;;
57225;SDS011;43082;43.568;22.256;2023-03-31T03:37:30;12.05;;;3.25;;
57225;SDS011;43082;43.568;22.256;2023-03-31T03:39:56;9.90;;;3.72;;
57225;SDS011;43082;43.568;22.256;2023-03-31T03:42:21;7.43;;;2.88;;
57225;SDS011;43082;43.568;22.256;2023-03-31T03:44:47;11.55;;;4.15;;
57225;SDS011;43082;43.568;22.256;2023-03-31T03:47:12;9.63;;;3.90;;
57225;SDS011;43082;43.568;22.256;2023-03-31T03:49:38;11.55;;;2.70;;
57225;SDS011;43082;43.568;22.256;2023-03-31T03:52:04;11.35;;;3.90;;
57225;SDS011;43082;43.568;22.256;2023-03-31T03:54:30;12.45;;;4.82;;
57225;SDS011;43082;43.568;22.256;2023-03-31T03:56:55;7.07;;;2.65;;
57225;SDS011;43082;43.568;22.256;2023-03-31T03:59:21;9.90;;;3.72;;
57225;SDS011;43082;43.568;22.256;2023-03-31T04:01:47;9.90;;;3.60;;
57225;SDS011;43082;43.568;22.256;2023-03-31T04:04:12;8.75;;;3.75;;
57225;SDS011;43082;43.568;22.256;2023-03-31T04:06:37;10.18;;;4.40;;
57225;SDS011;43082;43.568;22.256;2023-03-31T04:09:03;10.30;;;3.97;;
57225;SDS011;43082;43.568;22.256;2023-03-31T04:11:28;8.20;;;3.05;;
57225;SDS011;43082;43.568;22.256;2023-03-31T04:13:54;10.48;;;3.65;;
57225;SDS011;43082;43.568;22.256;2023-03-31T04:16:20;12.57;;;5.20;;
57225;SDS011;43082;43.568;22.256;2023-03-31T04:18:47;9.25;;;4.07;;
57225;SDS011;43082;43.568;22.256;2023-03-31T04:21:13;11.20;;;4.78;;
57225;SDS011;43082;43.568;22.256;2023-03-31T04:23:47;11.03;;;4.63;;
57225;SDS011;43082;43.568;22.256;2023-03-31T04:26:14;14.27;;;5.50;;
57225;SDS011;43082;43.568;22.256;2023-03-31T04:28:41;11.57;;;6.32;;
57225;SDS011;43082;43.568;22.256;2023-03-31T04:31:10;12.32;;;8.23;;
57225;SDS011;43082;43.568;22.256;2023-03-31T04:33:40;16.95;;;9.85;;
57225;SDS011;43082;43.568;22.256;2023-03-31T04:36:10;15.68;;;9.38;;
57225;SDS011;43082;43.568;22.256;2023-03-31T04:38:41;18.92;;;12.85;;
57225;SDS011;43082;43.568;22.256;2023-03-31T04:41:10;18.55;;;10.50;;
57225;SDS011;43082;43.568;22.256;2023-03-31T04:43:39;16.10;;;7.45;;
57225;SDS011;43082;43.568;22.256;2023-03-31T04:46:04;14.70;;;6.90;;
57225;SDS011;43082;43.568;22.256;2023-03-31T04:48:30;9.07;;;4.43;;
57225;SDS011;43082;43.568;22.256;2023-03-31T04:50:55;8.90;;;4.38;;
57225;SDS011;43082;43.568;22.256;2023-03-31T04:53:21;12.45;;;7.50;;
57225;SDS011;43082;43.568;22.256;2023-03-31T04:55:47;13.32;;;7.18;;
57225;SDS011;43082;43.568;22.256;2023-03-31T04:58:13;11.90;;;4.38;;
57225;SDS011;43082;43.568;22.256;2023-03-31T05:00:38;9.65;;;3.17;;
57225;SDS011;43082;43.568;22.256;2023-03-31T05:03:04;8.40;;;2.65;;
57225;SDS011;43082;43.568;22.256;2023-03-31T05:05:30;9.68;;;3.70;;
57225;SDS011;43082;43.568;22.256;2023-03-31T05:07:56;13.38;;;5.90;;
57225;SDS011;43082;43.568;22.256;2023-03-31T05:10:21;20.95;;;10.93;;
57225;SDS011;43082;43.568;22.256;2023-03-31T05:12:46;18.88;;;9.15;;
57225;SDS011;43082;43.568;22.256;2023-03-31T05:15:13;17.98;;;8.27;;
57225;SDS011;43082;43.568;22.256;2023-03-31T05:17:38;21.85;;;14.05;;
57225;SDS011;43082;43.568;22.256;2023-03-31T05:20:04;25.85;;;14.93;;
57225;SDS011;43082;43.568;22.256;2023-03-31T05:22:35;34.53;;;19.20;;
57225;SDS011;43082;43.568;22.256;2023-03-31T05:25:02;23.65;;;13.70;;
57225;SDS011;43082;43.568;22.256;2023-03-31T05:27:30;20.45;;;10.68;;
57225;SDS011;43082;43.568;22.256;2023-03-31T05:29:55;17.65;;;10.07;;
57225;SDS011;43082;43.568;22.256;2023-03-31T05:32:21;23.83;;;15.25;;
57225;SDS011;43082;43.568;22.256;2023-03-31T05:34:46;12.43;;;5.47;;
57225;SDS011;43082;43.568;22.256;2023-03-31T05:37:12;24.42;;;15.45;;
57225;SDS011;43082;43.568;22.256;2023-03-31T05:39:37;32.70;;;22.05;;
57225;SDS011;43082;43.568;22.256;2023-03-31T05:42:03;72.07;;;48.67;;
57225;SDS011;43082;43.568;22.256;2023-03-31T05:44:31;27.38;;;18.60;;
57225;SDS011;43082;43.568;22.256;2023-03-31T05:46:56;28.45;;;16.33;;
57225;SDS011;43082;43.568;22.256;2023-03-31T05:49:22;22.33;;;14.63;;
57225;SDS011;43082;43.568;22.256;2023-03-31T05:51:47;32.05;;;19.75;;
57225;SDS011;43082;43.568;22.256;2023-03-31T05:54:13;19.77;;;9.70;;
57225;SDS011;43082;43.568;22.256;2023-03-31T05:56:38;13.43;;;7.40;;
57225;SDS011;43082;43.568;22.256;2023-03-31T05:59:04;15.27;;;8.18;;
57225;SDS011;43082;43.568;22.256;2023-03-31T06:01:29;15.85;;;8.82;;
57225;SDS011;43082;43.568;22.256;2023-03-31T06:03:55;27.05;;;17.27;;
57225;SDS011;43082;43.568;22.256;2023-03-31T06:06:20;16.33;;;9.75;;
57225;SDS011;43082;43.568;22.256;2023-03-31T06:08:46;19.30;;;10.73;;
57225;SDS011;43082;43.568;22.256;2023-03-31T06:11:13;9.82;;;4.53;;
57225;SDS011;43082;43.568;22.256;2023-03-31T06:13:40;9.93;;;4.30;;
57225;SDS011;43082;43.568;22.256;2023-03-31T06:16:07;16.13;;;7.50;;
57225;SDS011;43082;43.568;22.256;2023-03-31T06:18:34;18.25;;;7.82;;
57225;SDS011;43082;43.568;22.256;2023-03-31T06:21:00;14.50;;;7.93;;
57225;SDS011;43082;43.568;22.256;2023-03-31T06:23:25;10.18;;;5.15;;
57225;SDS011;43082;43.568;22.256;2023-03-31T06:25:51;17.73;;;8.32;;
57225;SDS011;43082;43.568;22.256;2023-03-31T06:28:17;34.17;;;18.08;;
57225;SDS011;43082;43.568;22.256;2023-03-31T06:30:43;24.95;;;13.82;;
57225;SDS011;43082;43.568;22.256;2023-03-31T06:33:09;15.95;;;7.63;;
57225;SDS011;43082;43.568;22.256;2023-03-31T06:35:38;16.98;;;8.40;;
57225;SDS011;43082;43.568;22.256;2023-03-31T06:38:05;22.45;;;11.35;;
57225;SDS011;43082;43.568;22.256;2023-03-31T06:40:31;28.30;;;16.30;;
57225;SDS011;43082;43.568;22.256;2023-03-31T06:42:56;28.58;;;17.88;;
57225;SDS011;43082;43.568;22.256;2023-03-31T06:45:22;32.40;;;21.42;;
57225;SDS011;43082;43.568;22.256;2023-03-31T06:47:47;28.73;;;18.52;;
57225;SDS011;43082;43.568;22.256;2023-03-31T06:50:12;29.95;;;19.58;;
57225;SDS011;43082;43.568;22.256;2023-03-31T06:52:38;21.45;;;11.77;;
57225;SDS011;43082;43.568;22.256;2023-03-31T06:55:05;28.10;;;16.80;;
57225;SDS011;43082;43.568;22.256;2023-03-31T06:57:31;26.05;;;14.40;;
57225;SDS011;43082;43.568;22.256;2023-03-31T06:59:58;29.33;;;16.75;;
57225;SDS011;43082;43.568;22.256;2023-03-31T07:02:23;21.15;;;12.15;;
57225;SDS011;43082;43.568;22.256;2023-03-31T07:04:49;17.25;;;8.32;;
57225;SDS011;43082;43.568;22.256;2023-03-31T07:07:14;12.23;;;6.30;;
57225;SDS011;43082;43.568;22.256;2023-03-31T07:09:40;12.98;;;5.95;;
57225;SDS011;43082;43.568;22.256;2023-03-31T07:12:05;21.00;;;8.10;;
57225;SDS011;43082;43.568;22.256;2023-03-31T07:14:31;20.67;;;11.60;;
57225;SDS011;43082;43.568;22.256;2023-03-31T07:16:57;16.65;;;8.65;;
57225;SDS011;43082;43.568;22.256;2023-03-31T07:19:22;29.65;;;15.38;;
57225;SDS011;43082;43.568;22.256;2023-03-31T07:21:48;24.20;;;15.10;;
57225;SDS011;43082;43.568;22.256;2023-03-31T07:24:13;19.58;;;10.75;;
57225;SDS011;43082;43.568;22.256;2023-03-31T07:26:39;13.55;;;5.70;;
57225;SDS011;43082;43.568;22.256;2023-03-31T07:29:04;18.92;;;8.00;;
57225;SDS011;43082;43.568;22.256;2023-03-31T07:31:30;16.30;;;9.20;;
57225;SDS011;43082;43.568;22.256;2023-03-31T07:33:55;25.00;;;12.90;;
57225;SDS011;43082;43.568;22.256;2023-03-31T07:36:21;12.48;;;4.82;;
57225;SDS011;43082;43.568;22.256;2023-03-31T07:38:46;14.70;;;8.20;;
57225;SDS011;43082;43.568;22.256;2023-03-31T07:41:14;12.13;;;5.20;;
57225;SDS011;43082;43.568;22.256;2023-03-31T07:43:41;11.82;;;5.70;;
57225;SDS011;43082;43.568;22.256;2023-03-31T07:46:12;11.73;;;4.47;;
57225;SDS011;43082;43.568;22.256;2023-03-31T07:48:38;10.90;;;4.30;;
57225;SDS011;43082;43.568;22.256;2023-03-31T07:51:04;10.95;;;4.53;;
57225;SDS011;43082;43.568;22.256;2023-03-31T07:53:29;13.73;;;6.85;;
57225;SDS011;43082;43.568;22.256;2023-03-31T07:55:55;12.15;;;4.72;;
57225;SDS011;43082;43.568;22.256;2023-03-31T07:58:20;12.35;;;5.10;;
57225;SDS011;43082;43.568;22.256;2023-03-31T08:00:46;12.85;;;6.00;;
57225;SDS011;43082;43.568;22.256;2023-03-31T08:03:11;13.02;;;5.47;;
57225;SDS011;43082;43.568;22.256;2023-03-31T08:05:37;8.98;;;3.70;;
57225;SDS011;43082;43.568;22.256;2023-03-31T08:08:02;13.27;;;6.75;;
57225;SDS011;43082;43.568;22.256;2023-03-31T08:10:27;16.42;;;8.82;;
57225;SDS011;43082;43.568;22.256;2023-03-31T08:12:53;17.10;;;6.68;;
57225;SDS011;43082;43.568;22.256;2023-03-31T08:15:19;12.85;;;6.63;;
57225;SDS011;43082;43.568;22.256;2023-03-31T08:17:45;13.23;;;8.02;;
57225;SDS011;43082;43.568;22.256;2023-03-31T08:20:10;16.10;;;8.20;;
57225;SDS011;43082;43.568;22.256;2023-03-31T08:22:37;14.43;;;7.25;;
57225;SDS011;43082;43.568;22.256;2023-03-31T08:25:03;12.23;;;5.88;;
57225;SDS011;43082;43.568;22.256;2023-03-31T08:27:33;22.73;;;13.40;;
57225;SDS011;43082;43.568;22.256;2023-03-31T08:29:59;12.95;;;6.45;;
57225;SDS011;43082;43.568;22.256;2023-03-31T08:32:28;17.52;;;7.57;;
57225;SDS011;43082;43.568;22.256;2023-03-31T08:34:54;13.07;;;6.45;;
57225;SDS011;43082;43.568;22.256;2023-03-31T08:37:20;14.40;;;6.50;;
57225;SDS011;43082;43.568;22.256;2023-03-31T08:39:45;12.48;;;6.03;;
57225;SDS011;43082;43.568;22.256;2023-03-31T08:44:56;15.35;;;6.30;;
57225;SDS011;43082;43.568;22.256;2023-03-31T08:47:31;26.58;;;19.65;;
57225;SDS011;43082;43.568;22.256;2023-03-31T08:50:04;15.05;;;6.45;;
57225;SDS011;43082;43.568;22.256;2023-03-31T08:52:33;13.77;;;6.85;;
57225;SDS011;43082;43.568;22.256;2023-03-31T08:55:06;16.63;;;7.78;;
57225;SDS011;43082;43.568;22.256;2023-03-31T09:00:22;15.60;;;7.38;;
57225;SDS011;43082;43.568;22.256;2023-03-31T09:06:01;12.85;;;5.57;;
57225;SDS011;43082;43.568;22.256;2023-03-31T09:08:38;9.52;;;4.07;;
57225;SDS011;43082;43.568;22.256;2023-03-31T09:18:58;13.27;;;5.20;;
57225;SDS011;43082;43.568;22.256;2023-03-31T09:21:26;11.07;;;5.40;;
57225;SDS011;43082;43.568;22.256;2023-03-31T09:23:57;10.93;;;4.90;;
57225;SDS011;43082;43.568;22.256;2023-03-31T09:26:28;14.52;;;6.20;;
57225;SDS011;43082;43.568;22.256;2023-03-31T09:29:12;12.45;;;5.95;;
57225;SDS011;43082;43.568;22.256;2023-03-31T09:31:42;15.43;;;6.82;;
57225;SDS011;43082;43.568;22.256;2023-03-31T09:34:12;12.93;;;5.97;;
57225;SDS011;43082;43.568;22.256;2023-03-31T09:36:39;21.05;;;7.68;;
57225;SDS011;43082;43.568;22.256;2023-03-31T09:39:07;13.15;;;5.63;;
57225;SDS011;43082;43.568;22.256;2023-03-31T09:41:36;16.83;;;7.32;;
57225;SDS011;43082;43.568;22.256;2023-03-31T09:44:01;14.25;;;5.75;;
57225;SDS011;43082;43.568;22.256;2023-03-31T09:46:32;12.57;;;7.88;;
57225;SDS011;43082;43.568;22.256;2023-03-31T09:49:08;9.27;;;4.35;;
57225;SDS011;43082;43.568;22.256;2023-03-31T09:51:36;12.50;;;6.10;;
57225;SDS011;43082;43.568;22.256;2023-03-31T09:54:12;14.23;;;6.30;;
57225;SDS011;43082;43.568;22.256;2023-03-31T09:56:45;11.30;;;4.10;;
57225;SDS011;43082;43.568;22.256;2023-03-31T09:59:23;11.25;;;3.80;;
57225;SDS011;43082;43.568;22.256;2023-03-31T10:01:56;12.07;;;4.60;;
57225;SDS011;43082;43.568;22.256;2023-03-31T10:04:24;14.93;;;6.50;;
57225;SDS011;43082;43.568;22.256;2023-03-31T10:06:51;11.68;;;5.72;;
57225;SDS011;43082;43.568;22.256;2023-03-31T10:09:18;11.85;;;5.60;;
57225;SDS011;43082;43.568;22.256;2023-03-31T10:12:06;11.65;;;4.82;;
57225;SDS011;43082;43.568;22.256;2023-03-31T10:17:05;10.82;;;5.05;;
57225;SDS011;43082;43.568;22.256;2023-03-31T10:19:32;11.95;;;4.80;;
57225;SDS011;43082;43.568;22.256;2023-03-31T10:22:00;11.60;;;4.80;;
57225;SDS011;43082;43.568;22.256;2023-03-31T10:24:40;9.27;;;4.28;;
57225;SDS011;43082;43.568;22.256;2023-03-31T10:27:19;9.90;;;4.40;;
57225;SDS011;43082;43.568;22.256;2023-03-31T10:29:56;12.85;;;5.38;;
57225;SDS011;43082;43.568;22.256;2023-03-31T10:32:26;218.48;;;133.20;;
57225;SDS011;43082;43.568;22.256;2023-03-31T10:34:54;54.75;;;43.08;;
57225;SDS011;43082;43.568;22.256;2023-03-31T10:37:24;47.10;;;36.25;;
57225;SDS011;43082;43.568;22.256;2023-03-31T10:42:43;14.07;;;9.60;;
57225;SDS011;43082;43.568;22.256;2023-03-31T10:47:46;14.75;;;8.27;;
57225;SDS011;43082;43.568;22.256;2023-03-31T10:50:13;13.70;;;6.82;;
57225;SDS011;43082;43.568;22.256;2023-03-31T10:52:44;17.63;;;8.82;;
57225;SDS011;43082;43.568;22.256;2023-03-31T10:55:20;13.52;;;7.57;;
57225;SDS011;43082;43.568;22.256;2023-03-31T10:57:55;13.23;;;7.20;;
57225;SDS011;43082;43.568;22.256;2023-03-31T11:00:34;9.70;;;4.60;;
57225;SDS011;43082;43.568;22.256;2023-03-31T11:14:38;10.98;;;5.80;;
57225;SDS011;43082;43.568;22.256;2023-03-31T11:22:39;9.05;;;4.60;;
57225;SDS011;43082;43.568;22.256;2023-03-31T11:41:36;24.35;;;17.60;;
57225;SDS011;43082;43.568;22.256;2023-03-31T11:44:08;18.45;;;11.00;;
57225;SDS011;43082;43.568;22.256;2023-03-31T11:46:39;27.05;;;20.13;;
57225;SDS011;43082;43.568;22.256;2023-03-31T11:54:40;19.00;;;12.40;;
57225;SDS011;43082;43.568;22.256;2023-03-31T11:57:41;13.23;;;6.88;;
57225;SDS011;43082;43.568;22.256;2023-03-31T12:00:02;14.10;;;8.65;;
57225;SDS011;43082;43.568;22.256;2023-03-31T12:02:39;16.05;;;8.05;;
57225;SDS011;43082;43.568;22.256;2023-03-31T12:05:07;10.25;;;5.20;;
57225;SDS011;43082;43.568;22.256;2023-03-31T12:07:49;10.20;;;4.70;;
57225;SDS011;43082;43.568;22.256;2023-03-31T12:10:20;8.40;;;4.35;;
57225;SDS011;43082;43.568;22.256;2023-03-31T12:12:52;11.20;;;4.45;;
57225;SDS011;43082;43.568;22.256;2023-03-31T12:15:28;12.32;;;6.53;;
57225;SDS011;43082;43.568;22.256;2023-03-31T12:18:02;12.50;;;6.70;;
57225;SDS011;43082;43.568;22.256;2023-03-31T12:20:41;18.02;;;11.10;;
57225;SDS011;43082;43.568;22.256;2023-03-31T12:23:12;15.57;;;9.55;;
57225;SDS011;43082;43.568;22.256;2023-03-31T12:25:46;14.00;;;6.00;;
57225;SDS011;43082;43.568;22.256;2023-03-31T12:28:20;16.10;;;8.98;;
57225;SDS011;43082;43.568;22.256;2023-03-31T12:30:46;13.48;;;5.63;;
57225;SDS011;43082;43.568;22.256;2023-03-31T12:52:42;11.95;;;6.05;;
57225;SDS011;43082;43.568;22.256;2023-03-31T13:01:13;9.95;;;3.75;;
57225;SDS011;43082;43.568;22.256;2023-03-31T13:03:42;11.10;;;6.13;;
57225;SDS011;43082;43.568;22.256;2023-03-31T13:06:44;10.27;;;3.72;;
57225;SDS011;43082;43.568;22.256;2023-03-31T13:09:00;9.65;;;4.20;;
57225;SDS011;43082;43.568;22.256;2023-03-31T13:16:38;9.40;;;4.32;;
57225;SDS011;43082;43.568;22.256;2023-03-31T13:19:04;12.90;;;4.03;;
57225;SDS011;43082;43.568;22.256;2023-03-31T13:21:30;8.00;;;3.50;;
57225;SDS011;43082;43.568;22.256;2023-03-31T13:24:16;8.85;;;3.67;;
57225;SDS011;43082;43.568;22.256;2023-03-31T13:26:46;9.25;;;3.83;;
57225;SDS011;43082;43.568;22.256;2023-03-31T13:34:33;18.85;;;10.85;;
57225;SDS011;43082;43.568;22.256;2023-03-31T13:37:13;13.15;;;6.28;;
57225;SDS011;43082;43.568;22.256;2023-03-31T13:47:56;7.25;;;2.75;;
57225;SDS011;43082;43.568;22.256;2023-03-31T13:50:38;8.23;;;3.50;;
57225;SDS011;43082;43.568;22.256;2023-03-31T14:09:57;12.43;;;6.65;;
57225;SDS011;43082;43.568;22.256;2023-03-31T14:12:33;10.77;;;4.68;;
57225;SDS011;43082;43.568;22.256;2023-03-31T14:15:00;9.07;;;4.10;;
57225;SDS011;43082;43.568;22.256;2023-03-31T14:17:26;11.48;;;4.07;;
57225;SDS011;43082;43.568;22.256;2023-03-31T14:20:02;8.90;;;3.10;;
57225;SDS011;43082;43.568;22.256;2023-03-31T14:30:36;20.20;;;12.95;;
57225;SDS011;43082;43.568;22.256;2023-03-31T14:38:39;17.85;;;11.45;;
57225;SDS011;43082;43.568;22.256;2023-03-31T14:41:05;17.15;;;9.13;;
57225;SDS011;43082;43.568;22.256;2023-03-31T14:43:32;21.80;;;11.07;;
57225;SDS011;43082;43.568;22.256;2023-03-31T14:46:01;14.65;;;7.50;;
57225;SDS011;43082;43.568;22.256;2023-03-31T14:48:32;14.35;;;8.00;;
57225;SDS011;43082;43.568;22.256;2023-03-31T14:51:00;13.18;;;5.53;;
57225;SDS011;43082;43.568;22.256;2023-03-31T14:53:26;28.33;;;16.35;;
57225;SDS011;43082;43.568;22.256;2023-03-31T14:58:58;13.48;;;5.95;;
57225;SDS011;43082;43.568;22.256;2023-03-31T15:01:26;17.17;;;7.60;;
57225;SDS011;43082;43.568;22.256;2023-03-31T15:03:59;26.20;;;14.88;;
57225;SDS011;43082;43.568;22.256;2023-03-31T15:06:28;19.88;;;9.63;;
57225;SDS011;43082;43.568;22.256;2023-03-31T15:08:56;31.02;;;16.17;;
57225;SDS011;43082;43.568;22.256;2023-03-31T15:11:22;26.90;;;13.27;;
57225;SDS011;43082;43.568;22.256;2023-03-31T15:13:48;24.88;;;13.25;;
57225;SDS011;43082;43.568;22.256;2023-03-31T15:19:15;21.05;;;10.82;;
57225;SDS011;43082;43.568;22.256;2023-03-31T15:21:43;35.20;;;20.65;;
57225;SDS011;43082;43.568;22.256;2023-03-31T15:24:12;32.08;;;19.05;;
57225;SDS011;43082;43.568;22.256;2023-03-31T15:26:40;18.33;;;11.07;;
57225;SDS011;43082;43.568;22.256;2023-03-31T15:29:25;21.48;;;12.02;;
57225;SDS011;43082;43.568;22.256;2023-03-31T15:32:04;20.77;;;11.70;;
57225;SDS011;43082;43.568;22.256;2023-03-31T15:34:32;21.60;;;12.18;;
57225;SDS011;43082;43.568;22.256;2023-03-31T15:37:00;21.00;;;14.15;;
57225;SDS011;43082;43.568;22.256;2023-03-31T15:39:27;18.98;;;12.48;;
57225;SDS011;43082;43.568;22.256;2023-03-31T15:41:55;22.92;;;14.63;;
57225;SDS011;43082;43.568;22.256;2023-03-31T15:44:35;26.75;;;14.60;;
57225;SDS011;43082;43.568;22.256;2023-03-31T15:47:06;21.77;;;13.20;;
57225;SDS011;43082;43.568;22.256;2023-03-31T15:49:32;19.10;;;9.55;;
57225;SDS011;43082;43.568;22.256;2023-03-31T15:51:57;17.67;;;7.38;;
57225;SDS011;43082;43.568;22.256;2023-03-31T15:54:28;19.40;;;9.70;;
57225;SDS011;43082;43.568;22.256;2023-03-31T15:56:58;27.25;;;17.70;;
57225;SDS011;43082;43.568;22.256;2023-03-31T15:59:26;36.97;;;23.52;;
57225;SDS011;43082;43.568;22.256;2023-03-31T16:01:52;43.83;;;25.88;;
57225;SDS011;43082;43.568;22.256;2023-03-31T16:04:20;53.83;;;29.90;;
57225;SDS011;43082;43.568;22.256;2023-03-31T16:06:50;68.70;;;39.17;;
57225;SDS011;43082;43.568;22.256;2023-03-31T16:09:19;122.70;;;71.15;;
57225;SDS011;43082;43.568;22.256;2023-03-31T16:11:52;53.63;;;30.90;;
57225;SDS011;43082;43.568;22.256;2023-03-31T16:14:22;41.50;;;21.60;;
57225;SDS011;43082;43.568;22.256;2023-03-31T16:17:13;41.67;;;21.55;;
57225;SDS011;43082;43.568;22.256;2023-03-31T16:19:40;55.75;;;29.83;;
57225;SDS011;43082;43.568;22.256;2023-03-31T16:22:20;48.33;;;26.02;;
57225;SDS011;43082;43.568;22.256;2023-03-31T16:24:47;46.03;;;24.38;;
57225;SDS011;43082;43.568;22.256;2023-03-31T16:27:12;40.50;;;22.25;;
57225;SDS011;43082;43.568;22.256;2023-03-31T16:29:38;52.58;;;31.20;;
57225;SDS011;43082;43.568;22.256;2023-03-31T16:32:14;53.33;;;31.15;;
57225;SDS011;43082;43.568;22.256;2023-03-31T16:34:54;60.78;;;39.15;;
57225;SDS011;43082;43.568;22.256;2023-03-31T16:37:27;53.75;;;35.78;;
57225;SDS011;43082;43.568;22.256;2023-03-31T16:39:53;56.45;;;33.63;;
57225;SDS011;43082;43.568;22.256;2023-03-31T16:42:18;69.72;;;43.38;;
57225;SDS011;43082;43.568;22.256;2023-03-31T16:44:44;49.03;;;28.90;;
57225;SDS011;43082;43.568;22.256;2023-03-31T16:47:10;35.63;;;18.85;;
57225;SDS011;43082;43.568;22.256;2023-03-31T16:49:36;29.70;;;17.50;;
57225;SDS011;43082;43.568;22.256;2023-03-31T16:52:02;38.00;;;25.40;;
57225;SDS011;43082;43.568;22.256;2023-03-31T16:54:29;20.70;;;13.43;;
57225;SDS011;43082;43.568;22.256;2023-03-31T16:56:55;31.10;;;20.27;;
57225;SDS011;43082;43.568;22.256;2023-03-31T16:59:21;51.67;;;31.85;;
57225;SDS011;43082;43.568;22.256;2023-03-31T17:01:47;72.95;;;40.78;;
57225;SDS011;43082;43.568;22.256;2023-03-31T17:04:12;81.20;;;44.83;;
57225;SDS011;43082;43.568;22.256;2023-03-31T17:06:38;85.32;;;49.88;;
57225;SDS011;43082;43.568;22.256;2023-03-31T17:09:03;75.03;;;47.90;;
57225;SDS011;43082;43.568;22.256;2023-03-31T17:11:29;86.88;;;53.75;;
57225;SDS011;43082;43.568;22.256;2023-03-31T17:13:54;75.72;;;49.17;;
57225;SDS011;43082;43.568;22.256;2023-03-31T17:16:20;85.30;;;58.30;;
57225;SDS011;43082;43.568;22.256;2023-03-31T17:18:46;75.00;;;50.65;;
57225;SDS011;43082;43.568;22.256;2023-03-31T17:21:12;49.47;;;33.55;;
57225;SDS011;43082;43.568;22.256;2023-03-31T17:23:39;60.25;;;42.95;;
57225;SDS011;43082;43.568;22.256;2023-03-31T17:26:06;63.13;;;44.67;;
57225;SDS011;43082;43.568;22.256;2023-03-31T17:28:33;71.97;;;50.88;;
57225;SDS011;43082;43.568;22.256;2023-03-31T17:30:59;85.22;;;58.88;;
57225;SDS011;43082;43.568;22.256;2023-03-31T17:33:26;74.45;;;52.00;;
57225;SDS011;43082;43.568;22.256;2023-03-31T17:35:58;75.25;;;51.85;;
57225;SDS011;43082;43.568;22.256;2023-03-31T17:38:24;76.53;;;53.75;;